createdAt,value
2018-12-21T00:00:15.814Z,11.95
2018-12-21T00:01:20.227Z,5.60
2018-12-21T00:02:24.694Z,11.10
2018-12-21T00:03:29.481Z,8.45
2018-12-21T00:04:33.944Z,8.28
2018-12-21T00:05:38.243Z,7.20
2018-12-21T00:06:42.611Z,6.17
2018-12-21T00:07:46.914Z,11.68
2018-12-21T00:08:52.114Z,10.88
2018-12-21T00:09:56.469Z,10.40
2018-12-21T00:11:03.806Z,8.80
2018-12-21T00:12:08.355Z,9.48
2018-12-21T00:13:12.716Z,15.15
2018-12-21T00:14:18.447Z,9.38
2018-12-21T00:15:23.111Z,9.40
2018-12-21T00:16:29.445Z,6.45
2018-12-21T00:17:34.649Z,7.42
2018-12-21T00:18:40.145Z,10.85
2018-12-21T00:19:44.712Z,13.50
2018-12-21T00:20:49.058Z,10.03
2018-12-21T00:21:53.436Z,9.23
2018-12-21T00:22:57.852Z,9.18
2018-12-21T00:24:02.273Z,10.43
2018-12-21T00:25:07.336Z,12.00
2018-12-21T00:26:11.681Z,16.75
2018-12-21T00:27:17.168Z,7.83
2018-12-21T00:28:21.566Z,10.98
2018-12-21T00:29:26.944Z,10.72
2018-12-21T00:30:30.270Z,12.95
2018-12-21T00:31:49.888Z,11.38
2018-12-21T00:33:09.388Z,11.30
2018-12-21T00:34:40.839Z,9.50
2018-12-21T00:35:50.707Z,14.47
2018-12-21T00:37:00.333Z,9.40
2018-12-21T00:38:09.652Z,13.88
2018-12-21T00:39:19.340Z,14.63
2018-12-21T00:40:30.123Z,11.63
2018-12-21T00:41:36.400Z,11.25
2018-12-21T00:42:47.507Z,12.53
2018-12-21T00:44:01.054Z,15.95
2018-12-21T00:45:10.058Z,13.40
2018-12-21T00:46:22.202Z,8.85
2018-12-21T00:47:27.084Z,9.20
2018-12-21T00:48:32.284Z,7.70
2018-12-21T00:49:37.548Z,7.65
2018-12-21T00:50:42.640Z,11.55
2018-12-21T00:51:48.203Z,11.48
2018-12-21T00:52:53.268Z,16.40
2018-12-21T00:54:00.882Z,11.05
2018-12-21T00:55:06.071Z,12.95
2018-12-21T00:56:11.550Z,10.48
2018-12-21T00:57:16.732Z,12.80
2018-12-21T00:58:23.647Z,11.25
2018-12-21T00:59:28.910Z,14.30
2018-12-21T01:00:33.444Z,15.10
2018-12-21T01:01:38.941Z,15.50
2018-12-21T01:02:44.115Z,10.75
2018-12-21T01:03:48.525Z,6.45
2018-12-21T01:04:53.876Z,12.60
2018-12-21T01:05:58.220Z,12.43
2018-12-21T01:07:10.187Z,12.15
2018-12-21T01:08:14.504Z,10.88
2018-12-21T01:09:19.418Z,11.15
2018-12-21T01:10:27.991Z,7.50
2018-12-21T01:11:32.412Z,14.38
2018-12-21T01:12:37.059Z,9.55
2018-12-21T01:13:41.521Z,17.42
2018-12-21T01:14:45.918Z,18.95
2018-12-21T01:15:50.250Z,24.37
2018-12-21T01:16:55.777Z,20.08
2018-12-21T01:18:00.157Z,16.57
2018-12-21T01:19:04.718Z,16.20
2018-12-21T01:20:10.421Z,15.28
2018-12-21T01:21:15.736Z,13.55
2018-12-21T01:22:20.195Z,13.65
2018-12-21T01:23:24.544Z,14.20
2018-12-21T01:24:28.884Z,15.78
2018-12-21T01:25:33.482Z,14.38
2018-12-21T01:26:38.804Z,14.18
2018-12-21T01:27:44.195Z,9.40
2018-12-21T01:28:48.861Z,11.88
2018-12-21T01:29:53.197Z,7.67
2018-12-21T01:30:57.497Z,9.63
2018-12-21T01:32:01.818Z,12.75
2018-12-21T01:33:07.062Z,7.65
2018-12-21T01:34:11.917Z,9.90
2018-12-21T01:35:16.236Z,11.12
2018-12-21T01:36:20.523Z,8.88
2018-12-21T01:37:24.909Z,19.80
2018-12-21T01:38:29.622Z,16.00
2018-12-21T01:39:34.004Z,20.75
2018-12-21T01:40:38.345Z,10.93
2018-12-21T01:41:42.609Z,15.72
2018-12-21T01:42:47.264Z,12.88
2018-12-21T01:43:51.619Z,7.70
2018-12-21T01:44:55.905Z,12.63
2018-12-21T01:46:00.202Z,10.90
2018-12-21T01:47:04.665Z,11.00
2018-12-21T01:48:09.077Z,9.40
2018-12-21T01:49:14.463Z,11.60
2018-12-21T01:50:18.798Z,8.68
2018-12-21T01:51:23.075Z,12.68
2018-12-21T01:52:27.396Z,9.33
2018-12-21T01:53:31.664Z,9.03
2018-12-21T01:54:35.982Z,13.75
2018-12-21T01:55:40.516Z,11.68
2018-12-21T01:56:44.753Z,16.15
2018-12-21T01:57:49.198Z,8.53
2018-12-21T01:58:53.533Z,7.12
2018-12-21T01:59:58.153Z,7.53
2018-12-21T02:01:02.624Z,12.43
2018-12-21T02:02:07.000Z,10.00
2018-12-21T02:03:11.399Z,8.20
2018-12-21T02:04:21.398Z,10.75
2018-12-21T02:05:26.176Z,19.10
2018-12-21T02:06:30.485Z,5.12
2018-12-21T02:07:34.841Z,9.48
2018-12-21T02:08:39.789Z,32.50
2018-12-21T02:09:44.112Z,6.42
2018-12-21T02:10:48.408Z,12.33
2018-12-21T02:11:52.719Z,11.08
2018-12-21T02:12:57.144Z,10.13
2018-12-21T02:14:02.471Z,16.17
2018-12-21T02:15:08.129Z,20.70
2018-12-21T02:16:12.405Z,7.62
2018-12-21T02:17:16.691Z,7.30
2018-12-21T02:18:21.252Z,13.95
2018-12-21T02:19:26.213Z,8.80
2018-12-21T02:20:30.906Z,9.00
2018-12-21T02:21:35.865Z,5.12
2018-12-21T02:22:40.965Z,11.03
2018-12-21T02:23:45.265Z,10.30
2018-12-21T02:24:49.727Z,6.50
2018-12-21T02:25:57.438Z,7.58
2018-12-21T02:27:01.850Z,7.08
2018-12-21T02:28:09.193Z,6.47
2018-12-21T02:29:14.386Z,9.30
2018-12-21T02:30:19.246Z,11.18
2018-12-21T02:31:27.471Z,15.40
2018-12-21T02:32:33.050Z,11.57
2018-12-21T02:33:37.417Z,11.60
2018-12-21T02:34:41.808Z,8.05
2018-12-21T02:35:46.102Z,7.53
2018-12-21T02:36:50.385Z,7.37
2018-12-21T02:37:54.717Z,14.58
2018-12-21T02:39:00.892Z,14.23
2018-12-21T02:40:05.792Z,8.70
2018-12-21T02:41:10.102Z,6.50
2018-12-21T02:42:14.470Z,8.20
2018-12-21T02:43:18.753Z,9.65
2018-12-21T02:44:23.109Z,11.83
2018-12-21T02:45:27.490Z,10.45
2018-12-21T02:46:32.115Z,18.27
2018-12-21T02:47:36.433Z,10.40
2018-12-21T02:48:40.860Z,7.95
2018-12-21T02:49:45.218Z,8.35
2018-12-21T02:50:49.980Z,12.65
2018-12-21T02:51:54.271Z,8.33
2018-12-21T02:52:58.887Z,19.10
2018-12-21T02:54:03.207Z,7.55
2018-12-21T02:55:07.524Z,7.95
2018-12-21T02:56:12.001Z,8.30
2018-12-21T02:57:16.311Z,8.30
2018-12-21T02:58:21.265Z,10.45
2018-12-21T02:59:25.649Z,14.78
2018-12-21T03:00:30.001Z,8.25
2018-12-21T03:01:34.449Z,8.93
2018-12-21T03:02:38.853Z,8.78
2018-12-21T03:03:43.747Z,12.88
2018-12-21T03:04:48.088Z,8.30
2018-12-21T03:05:52.449Z,11.93
2018-12-21T03:06:57.136Z,6.05
2018-12-21T03:08:01.469Z,7.22
2018-12-21T03:09:09.935Z,11.68
2018-12-21T03:10:14.274Z,13.15
2018-12-21T03:11:19.369Z,7.90
2018-12-21T03:12:23.733Z,12.13
2018-12-21T03:13:28.148Z,9.03
2018-12-21T03:14:32.435Z,18.50
2018-12-21T03:15:36.754Z,14.73
2018-12-21T03:16:41.702Z,10.13
2018-12-21T03:17:46.690Z,8.83
2018-12-21T03:18:51.249Z,13.15
2018-12-21T03:19:55.974Z,16.60
2018-12-21T03:21:01.209Z,9.30
2018-12-21T03:22:14.265Z,12.40
2018-12-21T03:23:12.045Z,6.55
2018-12-21T03:24:16.490Z,10.88
2018-12-21T03:25:20.957Z,9.85
2018-12-21T03:26:25.759Z,13.40
2018-12-21T03:27:30.122Z,16.42
2018-12-21T03:28:34.761Z,5.90
2018-12-21T03:29:39.130Z,13.93
2018-12-21T03:30:43.802Z,6.35
2018-12-21T03:31:48.119Z,14.95
2018-12-21T03:32:52.878Z,7.85
2018-12-21T03:34:04.382Z,6.62
2018-12-21T03:35:08.977Z,9.55
2018-12-21T03:36:13.286Z,14.40
2018-12-21T03:37:17.951Z,11.95
2018-12-21T03:38:22.518Z,12.65
2018-12-21T03:39:26.823Z,10.03
2018-12-21T03:40:32.244Z,4.55
2018-12-21T03:41:38.288Z,6.17
2018-12-21T03:42:42.699Z,7.50
2018-12-21T03:43:47.422Z,7.03
2018-12-21T03:44:51.765Z,7.75
2018-12-21T03:45:56.845Z,6.72
2018-12-21T03:47:01.345Z,7.45
2018-12-21T03:48:05.946Z,10.60
2018-12-21T03:49:10.472Z,13.85
2018-12-21T03:50:15.226Z,12.60
2018-12-21T03:51:19.745Z,7.55
2018-12-21T03:52:24.754Z,5.92
2018-12-21T03:53:29.489Z,10.38
2018-12-21T03:54:33.813Z,10.08
2018-12-21T03:55:38.644Z,10.70
2018-12-21T03:56:43.248Z,16.20
2018-12-21T03:57:47.637Z,9.73
2018-12-21T03:58:51.971Z,12.98
2018-12-21T03:59:56.566Z,8.48
2018-12-21T04:01:01.096Z,8.18
2018-12-21T04:02:06.177Z,10.78
2018-12-21T04:03:11.454Z,10.78
2018-12-21T04:04:16.863Z,6.10
2018-12-21T04:05:21.207Z,8.90
2018-12-21T04:06:26.053Z,7.75
2018-12-21T04:07:30.360Z,7.58
2018-12-21T04:08:34.787Z,6.70
2018-12-21T04:09:39.309Z,6.20
2018-12-21T04:10:43.642Z,15.40
2018-12-21T04:11:48.373Z,4.87
2018-12-21T04:12:52.804Z,6.00
2018-12-21T04:13:57.669Z,8.30
2018-12-21T04:15:02.292Z,9.05
2018-12-21T04:16:07.473Z,6.58
2018-12-21T04:17:11.883Z,8.48
2018-12-21T04:18:16.275Z,6.97
2018-12-21T04:19:20.811Z,8.95
2018-12-21T04:20:25.205Z,6.83
2018-12-21T04:21:29.657Z,6.37
2018-12-21T04:22:34.697Z,8.00
2018-12-21T04:23:39.157Z,9.63
2018-12-21T04:26:39.896Z,8.05
2018-12-21T04:27:45.295Z,5.28
2018-12-21T04:28:49.947Z,7.53
2018-12-21T04:29:54.291Z,12.70
2018-12-21T04:30:58.982Z,5.20
2018-12-21T04:32:04.238Z,5.78
2018-12-21T04:33:08.888Z,5.70
2018-12-21T04:34:13.381Z,7.37
2018-12-21T04:35:17.903Z,5.83
2018-12-21T04:36:22.373Z,9.33
2018-12-21T04:37:27.285Z,7.28
2018-12-21T04:38:31.777Z,6.95
2018-12-21T04:39:36.354Z,6.10
2018-12-21T04:40:41.004Z,8.28
2018-12-21T04:41:45.534Z,6.97
2018-12-21T04:42:49.894Z,4.47
2018-12-21T04:43:54.823Z,5.83
2018-12-21T04:44:59.927Z,9.93
2018-12-21T04:46:04.442Z,5.40
2018-12-21T04:47:08.720Z,5.67
2018-12-21T04:48:13.542Z,9.80
2018-12-21T04:49:18.255Z,7.30
2018-12-21T04:50:22.694Z,5.37
2018-12-21T04:51:27.085Z,5.25
2018-12-21T04:52:31.607Z,6.58
2018-12-21T04:53:36.241Z,12.47
2018-12-21T04:54:41.025Z,6.97
2018-12-21T04:55:45.301Z,6.42
2018-12-21T04:56:49.720Z,6.47
2018-12-21T04:57:54.045Z,5.05
2018-12-21T04:58:58.400Z,6.50
2018-12-21T05:00:02.770Z,7.42
2018-12-21T05:01:07.165Z,4.65
2018-12-21T05:02:11.877Z,6.58
2018-12-21T05:03:16.197Z,10.00
2018-12-21T05:04:21.163Z,6.85
2018-12-21T05:05:25.496Z,5.08
2018-12-21T05:06:29.852Z,2.92
2018-12-21T05:07:34.774Z,7.72
2018-12-21T05:08:39.324Z,12.40
2018-12-21T05:09:43.837Z,5.35
2018-12-21T05:10:48.439Z,6.47
2018-12-21T05:11:53.263Z,8.70
2018-12-21T05:12:57.613Z,5.40
2018-12-21T05:14:02.075Z,5.10
2018-12-21T05:15:06.644Z,4.72
2018-12-21T05:16:11.123Z,7.17
2018-12-21T05:17:15.458Z,12.70
2018-12-21T05:18:20.117Z,4.78
2018-12-21T05:19:24.444Z,6.40
2018-12-21T05:20:38.579Z,4.65
2018-12-21T05:21:43.240Z,8.25
2018-12-21T05:22:52.221Z,4.87
2018-12-21T05:23:55.354Z,3.45
2018-12-21T05:24:59.907Z,4.80
2018-12-21T05:26:04.278Z,4.28
2018-12-21T05:27:08.674Z,4.78
2018-12-21T05:28:13.326Z,6.00
2018-12-21T05:29:18.402Z,9.08
2018-12-21T05:30:23.176Z,6.87
2018-12-21T05:31:28.792Z,3.80
2018-12-21T05:32:33.375Z,4.47
2018-12-21T05:33:39.110Z,6.75
2018-12-21T05:34:44.201Z,7.72
2018-12-21T05:35:48.484Z,4.42
2018-12-21T05:36:57.988Z,3.67
2018-12-21T05:38:02.735Z,4.95
2018-12-21T05:39:07.685Z,4.55
2018-12-21T05:40:16.767Z,5.90
2018-12-21T05:41:21.302Z,5.15
2018-12-21T05:42:31.310Z,9.75
2018-12-21T05:43:39.820Z,6.85
2018-12-21T05:44:47.355Z,4.30
2018-12-21T05:45:52.020Z,6.05
2018-12-21T05:46:56.649Z,4.83
2018-12-21T05:48:01.260Z,4.83
2018-12-21T05:49:12.229Z,4.20
2018-12-21T05:50:17.840Z,3.10
2018-12-21T05:51:25.012Z,6.45
2018-12-21T05:52:30.673Z,3.90
2018-12-21T05:53:35.808Z,2.62
2018-12-21T05:54:40.641Z,3.25
2018-12-21T05:55:45.430Z,2.55
2018-12-21T05:56:50.565Z,4.08
2018-12-21T05:57:55.044Z,5.92
2018-12-21T05:58:59.446Z,4.05
2018-12-21T06:00:04.420Z,4.12
2018-12-21T06:01:09.326Z,5.28
2018-12-21T06:02:14.016Z,3.52
2018-12-21T06:03:18.439Z,3.60
2018-12-21T06:04:22.879Z,3.00
2018-12-21T06:05:27.942Z,3.80
2018-12-21T06:06:32.825Z,4.65
2018-12-21T06:07:37.169Z,4.85
2018-12-21T06:08:41.513Z,3.92
2018-12-21T06:09:45.916Z,4.00
2018-12-21T06:10:50.323Z,3.35
2018-12-21T06:11:55.479Z,6.85
2018-12-21T06:12:59.853Z,4.00
2018-12-21T06:14:04.357Z,5.10
2018-12-21T06:15:08.836Z,5.53
2018-12-21T06:16:13.227Z,3.08
2018-12-21T06:17:17.595Z,2.90
2018-12-21T06:18:21.922Z,3.65
2018-12-21T06:19:26.731Z,3.40
2018-12-21T06:20:32.767Z,4.67
2018-12-21T06:21:37.345Z,4.78
2018-12-21T06:22:43.425Z,3.33
2018-12-21T06:23:47.991Z,3.00
2018-12-21T06:24:52.767Z,3.00
2018-12-21T06:25:57.605Z,3.72
2018-12-21T06:27:02.064Z,3.90
2018-12-21T06:28:11.374Z,4.20
2018-12-21T06:29:17.273Z,2.65
2018-12-21T06:30:22.212Z,3.67
2018-12-21T06:31:26.648Z,6.72
2018-12-21T06:32:32.049Z,4.20
2018-12-21T06:33:36.853Z,4.65
2018-12-21T06:34:41.859Z,4.65
2018-12-21T06:35:46.249Z,4.42
2018-12-21T06:36:51.197Z,3.30
2018-12-21T06:37:55.623Z,3.85
2018-12-21T06:39:00.175Z,2.65
2018-12-21T06:40:04.860Z,4.35
2018-12-21T06:41:09.418Z,3.52
2018-12-21T06:42:13.949Z,4.70
2018-12-21T06:43:19.741Z,2.92
2018-12-21T06:44:24.788Z,4.60
2018-12-21T06:45:29.562Z,6.87
2018-12-21T06:46:34.307Z,3.42
2018-12-21T06:47:39.266Z,3.10
2018-12-21T06:48:44.747Z,2.98
2018-12-21T06:49:49.063Z,2.95
2018-12-21T06:50:54.981Z,8.38
2018-12-21T06:52:13.148Z,3.05
2018-12-21T06:53:20.432Z,4.12
2018-12-21T06:54:26.312Z,5.95
2018-12-21T06:55:32.917Z,4.03
2018-12-21T06:56:37.557Z,3.87
2018-12-21T06:57:42.448Z,3.20
2018-12-21T06:58:47.274Z,3.50
2018-12-21T06:59:51.706Z,3.75
2018-12-21T07:00:56.927Z,3.90
2018-12-21T07:02:15.353Z,3.67
2018-12-21T07:03:31.878Z,3.50
2018-12-21T07:04:37.260Z,2.85
2018-12-21T07:05:48.168Z,8.88
2018-12-21T07:06:56.140Z,3.55
2018-12-21T07:08:02.798Z,6.70
2018-12-21T07:09:11.499Z,3.20
2018-12-21T07:10:18.869Z,3.65
2018-12-21T07:11:26.693Z,3.47
2018-12-21T07:12:32.432Z,5.75
2018-12-21T07:13:38.860Z,4.03
2018-12-21T07:14:56.372Z,5.42
2018-12-21T07:16:02.633Z,5.50
2018-12-21T07:17:12.534Z,4.30
2018-12-21T07:18:18.228Z,6.85
2018-12-21T07:19:24.706Z,3.00
2018-12-21T07:20:29.719Z,4.03
2018-12-21T07:21:34.255Z,4.50
2018-12-21T07:22:39.173Z,3.15
2018-12-21T07:23:44.192Z,6.85
2018-12-21T07:24:49.927Z,10.72
2018-12-21T07:25:54.404Z,4.45
2018-12-21T07:26:58.851Z,9.18
2018-12-21T07:28:03.786Z,7.22
2018-12-21T07:29:09.310Z,6.62
2018-12-21T07:30:14.868Z,4.55
2018-12-21T07:31:19.472Z,4.35
2018-12-21T07:32:24.268Z,4.35
2018-12-21T07:33:29.515Z,5.08
2018-12-21T07:34:34.622Z,3.30
2018-12-21T07:35:40.267Z,7.25
2018-12-21T07:36:45.080Z,2.92
2018-12-21T07:37:49.537Z,2.80
2018-12-21T07:38:54.038Z,4.05
2018-12-21T07:39:58.897Z,5.50
2018-12-21T07:41:03.578Z,2.72
2018-12-21T07:42:08.693Z,3.62
2018-12-21T07:43:13.193Z,5.65
2018-12-21T07:44:18.537Z,3.37
2018-12-21T07:45:23.379Z,4.80
2018-12-21T07:46:27.905Z,3.75
2018-12-21T07:47:32.444Z,5.62
2018-12-21T07:48:37.159Z,6.72
2018-12-21T07:49:41.889Z,4.28
2018-12-21T07:50:46.761Z,6.37
2018-12-21T07:51:51.871Z,9.20
2018-12-21T07:52:56.324Z,5.58
2018-12-21T07:54:00.808Z,5.90
2018-12-21T07:55:06.628Z,4.85
2018-12-21T07:56:11.296Z,6.42
2018-12-21T07:57:21.759Z,2.98
2018-12-21T07:58:28.292Z,4.92
2018-12-21T07:59:32.964Z,4.37
2018-12-21T08:00:38.681Z,7.55
2018-12-21T08:01:43.447Z,6.90
2018-12-21T08:02:52.259Z,6.05
2018-12-21T08:03:58.727Z,11.57
2018-12-21T08:05:03.494Z,4.03
2018-12-21T08:06:10.020Z,5.40
2018-12-21T08:07:14.753Z,4.33
2018-12-21T08:08:22.365Z,8.15
2018-12-21T08:09:54.880Z,5.67
2018-12-21T08:11:00.807Z,4.28
2018-12-21T08:12:07.981Z,3.20
2018-12-21T08:13:13.928Z,3.42
2018-12-21T08:14:18.830Z,6.05
2018-12-21T08:15:24.462Z,4.40
2018-12-21T08:16:30.099Z,3.40
2018-12-21T08:17:35.227Z,4.62
2018-12-21T08:18:40.069Z,3.75
2018-12-21T08:19:44.497Z,3.40
2018-12-21T08:20:49.760Z,5.35
2018-12-21T08:21:54.609Z,3.75
2018-12-21T08:23:00.401Z,5.37
2018-12-21T08:24:05.752Z,4.62
2018-12-21T08:25:37.228Z,4.00
2018-12-21T08:26:43.662Z,4.08
2018-12-21T08:27:48.664Z,4.83
2018-12-21T08:28:54.228Z,11.10
2018-12-21T08:30:00.516Z,4.33
2018-12-21T08:31:08.725Z,5.53
2018-12-21T08:32:16.818Z,8.75
2018-12-21T08:33:23.755Z,4.62
2018-12-21T08:34:28.396Z,10.08
2018-12-21T08:35:33.350Z,8.80
2018-12-21T08:36:39.413Z,7.00
2018-12-21T08:37:43.968Z,6.35
2018-12-21T08:38:52.158Z,6.95
2018-12-21T08:41:01.188Z,7.85
2018-12-21T08:42:10.777Z,7.08
2018-12-21T08:43:15.482Z,6.28
2018-12-21T08:44:20.004Z,4.15
2018-12-21T08:45:24.765Z,3.42
2018-12-21T08:46:29.532Z,3.55
2018-12-21T08:47:35.281Z,5.85
2018-12-21T08:48:41.033Z,4.60
2018-12-21T08:49:46.566Z,4.10
2018-12-21T08:50:50.914Z,7.40
2018-12-21T08:51:55.380Z,7.35
2018-12-21T08:53:00.109Z,4.50
2018-12-21T08:54:07.830Z,8.48
2018-12-21T08:55:13.141Z,9.40
2018-12-21T08:56:20.135Z,4.62
2018-12-21T08:57:27.134Z,3.55
2018-12-21T08:58:31.620Z,7.35
2018-12-21T08:59:38.288Z,4.33
2018-12-21T09:00:42.804Z,8.20
2018-12-21T09:01:47.281Z,4.75
2018-12-21T09:02:51.644Z,5.97
2018-12-21T09:03:56.628Z,5.37
2018-12-21T09:05:01.178Z,6.65
2018-12-21T09:06:05.756Z,5.47
2018-12-21T09:07:10.320Z,5.50
2018-12-21T09:08:14.788Z,3.92
2018-12-21T09:09:20.357Z,9.03
2018-12-21T09:10:24.886Z,7.30
2018-12-21T09:11:35.020Z,5.55
2018-12-21T09:12:40.616Z,5.03
2018-12-21T09:13:46.093Z,3.72
2018-12-21T09:14:50.477Z,6.60
2018-12-21T09:15:55.240Z,4.87
2018-12-21T09:16:59.653Z,5.15
2018-12-21T09:18:05.093Z,5.42
2018-12-21T09:19:10.699Z,10.88
2018-12-21T09:20:15.382Z,6.17
2018-12-21T09:21:19.862Z,3.70
2018-12-21T09:22:24.329Z,4.67
2018-12-21T09:23:31.835Z,5.12
2018-12-21T09:24:36.181Z,5.55
2018-12-21T09:25:42.497Z,5.87
2018-12-21T09:26:48.638Z,4.30
2018-12-21T09:27:53.589Z,4.47
2018-12-21T09:28:58.774Z,6.25
2018-12-21T09:30:03.747Z,4.30
2018-12-21T09:31:08.475Z,7.92
2018-12-21T09:32:14.792Z,4.90
2018-12-21T09:33:19.175Z,4.58
2018-12-21T09:34:23.654Z,4.00
2018-12-21T09:35:29.440Z,3.95
2018-12-21T09:36:40.059Z,5.65
2018-12-21T09:37:47.829Z,5.65
2018-12-21T09:38:52.503Z,6.67
2018-12-21T09:39:58.000Z,7.70
2018-12-21T09:41:03.868Z,4.10
2018-12-21T09:42:09.421Z,5.35
2018-12-21T09:43:14.957Z,6.50
2018-12-21T09:44:19.354Z,5.03
2018-12-21T09:45:25.479Z,7.53
2018-12-21T09:46:31.170Z,7.83
2018-12-21T09:47:36.993Z,4.00
2018-12-21T09:48:54.821Z,8.35
2018-12-21T09:50:04.854Z,6.10
2018-12-21T09:51:09.597Z,9.58
2018-12-21T09:52:14.145Z,4.58
2018-12-21T09:53:19.139Z,5.45
2018-12-21T09:54:25.589Z,6.50
2018-12-21T09:55:29.975Z,7.53
2018-12-21T09:56:35.592Z,5.75
2018-12-21T09:57:40.250Z,3.65
2018-12-21T09:58:45.603Z,4.00
2018-12-21T09:59:50.106Z,4.10
2018-12-21T10:00:54.911Z,5.83
2018-12-21T10:02:00.473Z,6.10
2018-12-21T10:03:05.104Z,9.68
2018-12-21T10:04:12.626Z,9.75
2018-12-21T10:05:18.988Z,8.03
2018-12-21T10:06:23.772Z,6.33
2018-12-21T10:07:28.433Z,6.50
2018-12-21T10:08:32.868Z,4.70
2018-12-21T10:09:38.282Z,10.13
2018-12-21T10:10:43.000Z,8.68
2018-12-21T10:11:48.106Z,6.08
2018-12-21T10:12:53.481Z,5.97
2018-12-21T10:13:58.094Z,8.00
2018-12-21T10:15:02.555Z,9.90
2018-12-21T10:16:07.555Z,7.37
2018-12-21T10:17:12.784Z,10.60
2018-12-21T10:18:17.308Z,10.08
2018-12-21T10:19:22.893Z,5.22
2018-12-21T10:20:27.373Z,4.90
2018-12-21T10:21:32.006Z,5.60
2018-12-21T10:22:36.530Z,5.15
2018-12-21T10:23:41.112Z,6.87
2018-12-21T10:24:45.963Z,9.33
2018-12-21T10:25:50.456Z,4.45
2018-12-21T10:26:55.944Z,4.85
2018-12-21T10:28:01.446Z,11.22
2018-12-21T10:29:06.510Z,5.70
2018-12-21T10:30:13.016Z,4.87
2018-12-21T10:31:21.294Z,5.15
2018-12-21T10:32:27.308Z,3.80
2018-12-21T10:33:35.162Z,6.10
2018-12-21T10:34:39.628Z,6.97
2018-12-21T10:35:44.201Z,4.78
2018-12-21T10:36:50.572Z,5.53
2018-12-21T10:37:55.966Z,5.60
2018-12-21T10:39:00.855Z,6.08
2018-12-21T10:40:13.434Z,4.03
2018-12-21T10:41:17.825Z,6.25
2018-12-21T10:42:26.936Z,12.68
2018-12-21T10:43:31.858Z,4.80
2018-12-21T10:44:36.769Z,9.08
2018-12-21T10:45:41.974Z,7.62
2018-12-21T10:46:47.017Z,7.20
2018-12-21T10:47:53.578Z,7.80
2018-12-21T10:48:58.609Z,5.83
2018-12-21T10:50:03.441Z,6.65
2018-12-21T10:51:09.120Z,6.20
2018-12-21T10:52:15.972Z,11.83
2018-12-21T10:53:21.540Z,4.75
2018-12-21T10:54:27.620Z,6.10
2018-12-21T10:57:17.267Z,7.20
2018-12-21T10:58:23.916Z,4.85
2018-12-21T10:59:28.859Z,6.22
2018-12-21T11:00:42.729Z,9.50
2018-12-21T11:01:50.640Z,4.90
2018-12-21T11:02:56.783Z,8.80
2018-12-21T11:04:01.980Z,4.90
2018-12-21T11:05:08.834Z,3.83
2018-12-21T11:06:19.256Z,5.58
2018-12-21T11:07:36.055Z,6.80
2018-12-21T11:08:45.734Z,8.23
2018-12-21T11:09:50.320Z,7.65
2018-12-21T11:10:55.216Z,7.17
2018-12-21T11:12:01.806Z,4.62
2018-12-21T11:13:12.197Z,9.15
2018-12-21T11:14:21.012Z,6.30
2018-12-21T11:15:27.334Z,4.12
2018-12-21T11:16:33.415Z,5.00
2018-12-21T11:17:39.167Z,3.40
2018-12-21T11:19:04.020Z,3.10
2018-12-21T11:20:15.856Z,3.72
2018-12-21T11:21:20.294Z,3.10
2018-12-21T11:22:26.804Z,4.58
2018-12-21T11:23:31.168Z,3.85
2018-12-21T11:24:38.134Z,4.60
2018-12-21T11:25:45.264Z,5.80
2018-12-21T11:26:54.174Z,4.55
2018-12-21T11:27:58.828Z,3.25
2018-12-21T11:29:04.636Z,5.35
2018-12-21T11:30:09.844Z,4.00
2018-12-21T11:31:18.714Z,4.30
2018-12-21T11:32:23.729Z,3.42
2018-12-21T11:33:28.895Z,3.20
2018-12-21T11:34:40.081Z,4.17
2018-12-21T11:35:45.572Z,3.30
2018-12-21T11:36:50.708Z,4.28
2018-12-21T11:37:55.714Z,3.95
2018-12-21T11:39:00.107Z,6.33
2018-12-21T11:40:05.259Z,4.05
2018-12-21T11:41:10.065Z,3.22
2018-12-21T11:42:18.456Z,4.58
2018-12-21T11:43:24.910Z,5.10
2018-12-21T11:44:31.691Z,5.05
2018-12-21T11:45:36.792Z,3.90
2018-12-21T11:46:42.858Z,3.15
2018-12-21T11:47:48.429Z,3.30
2018-12-21T11:48:56.967Z,4.53
2018-12-21T11:50:01.597Z,6.55
2018-12-21T11:51:20.129Z,4.22
2018-12-21T11:52:26.402Z,3.62
2018-12-21T11:53:34.009Z,4.58
2018-12-21T11:54:44.208Z,8.35
2018-12-21T11:55:45.434Z,6.22
2018-12-21T11:56:51.574Z,2.95
2018-12-21T11:57:59.873Z,4.72
2018-12-21T11:59:07.313Z,4.10
2018-12-21T12:00:13.785Z,3.47
2018-12-21T12:01:18.827Z,3.98
2018-12-21T12:02:30.275Z,5.72
2018-12-21T12:03:34.713Z,3.20
2018-12-21T12:04:42.841Z,3.70
2018-12-21T12:05:50.004Z,3.40
2018-12-21T12:06:55.897Z,4.03
2018-12-21T12:08:04.355Z,3.70
2018-12-21T12:09:08.887Z,3.95
2018-12-21T12:10:13.882Z,3.80
2018-12-21T12:11:31.911Z,4.30
2018-12-21T12:12:39.468Z,5.85
2018-12-21T12:13:44.222Z,3.33
2018-12-21T12:14:48.735Z,5.15
2018-12-21T12:15:54.827Z,4.90
2018-12-21T12:16:59.690Z,5.00
2018-12-21T12:18:05.635Z,5.75
2018-12-21T12:19:10.465Z,3.20
2018-12-21T12:20:15.252Z,3.40
2018-12-21T12:21:19.644Z,3.80
2018-12-21T12:22:24.249Z,3.80
2018-12-21T12:23:34.228Z,5.83
2018-12-21T12:24:40.315Z,4.97
2018-12-21T12:25:48.890Z,3.40
2018-12-21T12:26:53.866Z,5.10
2018-12-21T12:27:58.546Z,3.15
2018-12-21T12:29:03.854Z,4.85
2018-12-21T12:30:10.704Z,6.20
2018-12-21T12:31:15.688Z,4.95
2018-12-21T12:32:20.154Z,5.05
2018-12-21T12:33:27.552Z,5.25
2018-12-21T12:34:34.274Z,4.50
2018-12-21T12:35:39.494Z,3.95
2018-12-21T12:36:44.143Z,3.47
2018-12-21T12:37:48.628Z,3.15
2018-12-21T12:38:54.381Z,3.98
2018-12-21T12:40:01.534Z,4.40
2018-12-21T12:41:07.719Z,4.15
2018-12-21T12:42:14.909Z,3.25
2018-12-21T12:43:27.341Z,3.90
2018-12-21T12:44:33.723Z,2.70
2018-12-21T12:45:38.611Z,3.25
2018-12-21T12:47:54.451Z,3.33
2018-12-21T12:48:58.856Z,3.58
2018-12-21T12:50:03.870Z,2.90
2018-12-21T12:51:09.678Z,3.87
2018-12-21T12:52:14.348Z,4.78
2018-12-21T12:53:19.668Z,4.12
2018-12-21T12:54:24.850Z,4.80
2018-12-21T12:55:29.721Z,4.95
2018-12-21T12:56:34.314Z,4.60
2018-12-21T12:57:39.893Z,5.03
2018-12-21T12:58:44.442Z,5.30
2018-12-21T12:59:48.788Z,3.95
2018-12-21T13:00:53.856Z,4.87
2018-12-21T13:01:58.541Z,3.60
2018-12-21T13:03:03.239Z,3.33
2018-12-21T13:04:08.796Z,3.20
2018-12-21T13:05:13.215Z,5.95
2018-12-21T13:07:17.336Z,3.57
2018-12-21T13:08:22.285Z,6.15
2018-12-21T13:09:28.268Z,5.25
2018-12-21T13:10:34.016Z,4.03
2018-12-21T13:11:39.707Z,4.25
2018-12-21T13:14:35.521Z,4.43
2018-12-21T13:15:41.735Z,3.72
2018-12-21T13:16:47.250Z,8.10
2018-12-21T13:17:56.053Z,3.40
2018-12-21T13:19:00.339Z,4.30
2018-12-21T13:20:05.835Z,6.53
2018-12-21T13:21:10.630Z,4.78
2018-12-21T13:22:15.950Z,3.20
2018-12-21T13:23:20.915Z,7.20
2018-12-21T13:24:25.673Z,4.67
2018-12-21T13:25:30.208Z,4.95
2018-12-21T13:26:40.666Z,4.53
2018-12-21T13:27:46.212Z,5.05
2018-12-21T13:28:52.275Z,5.15
2018-12-21T13:29:56.893Z,3.35
2018-12-21T13:31:02.430Z,4.15
2018-12-21T13:32:06.935Z,3.47
2018-12-21T13:33:11.188Z,4.45
2018-12-21T13:34:15.856Z,4.70
2018-12-21T13:35:26.765Z,4.83
2018-12-21T13:36:39.565Z,4.20
2018-12-21T13:37:44.232Z,7.17
2018-12-21T13:38:51.288Z,3.62
2018-12-21T13:39:59.803Z,5.10
2018-12-21T13:41:08.875Z,4.47
2018-12-21T13:42:18.573Z,6.58
2018-12-21T13:43:28.553Z,4.97
2018-12-21T13:44:37.379Z,4.10
2018-12-21T13:45:41.875Z,4.28
2018-12-21T13:46:46.193Z,4.97
2018-12-21T13:47:50.906Z,3.22
2018-12-21T13:48:57.728Z,4.50
2018-12-21T13:50:07.244Z,5.08
2018-12-21T13:51:15.509Z,5.65
2018-12-21T13:52:21.854Z,8.88
2018-12-21T13:53:39.720Z,9.78
2018-12-21T13:54:45.253Z,8.43
2018-12-21T13:55:51.096Z,7.05
2018-12-21T13:56:58.000Z,6.33
2018-12-21T13:58:02.707Z,5.53
2018-12-21T13:59:08.436Z,6.28
2018-12-21T14:00:20.581Z,5.30
2018-12-21T14:01:33.283Z,3.85
2018-12-21T14:02:38.378Z,5.65
2018-12-21T14:03:43.369Z,9.60
2018-12-21T14:04:55.668Z,6.30
2018-12-21T14:05:59.980Z,4.22
2018-12-21T14:07:10.337Z,5.90
2018-12-21T14:08:15.836Z,3.58
2018-12-21T14:09:20.840Z,7.92
2018-12-21T14:10:26.016Z,4.12
2018-12-21T14:11:32.198Z,3.92
2018-12-21T14:12:37.979Z,3.20
2018-12-21T14:13:43.662Z,6.90
2018-12-21T14:14:48.655Z,6.40
2018-12-21T14:15:55.285Z,7.92
2018-12-21T14:17:01.536Z,5.70
2018-12-21T14:18:06.665Z,4.60
2018-12-21T14:19:10.949Z,5.45
2018-12-21T14:20:21.618Z,5.03
2018-12-21T14:21:26.188Z,5.83
2018-12-21T14:22:34.399Z,4.10
2018-12-21T14:23:39.839Z,5.42
2018-12-21T14:24:45.421Z,4.60
2018-12-21T14:25:51.308Z,5.92
2018-12-21T14:26:58.578Z,8.38
2018-12-21T14:28:03.698Z,6.00
2018-12-21T14:29:09.413Z,12.20
2018-12-21T14:30:22.226Z,8.80
2018-12-21T14:31:28.805Z,9.30
2018-12-21T14:33:37.415Z,13.98
2018-12-21T14:34:47.460Z,4.35
2018-12-21T14:36:06.014Z,4.80
2018-12-21T14:37:11.428Z,5.12
2018-12-21T14:38:26.772Z,5.03
2018-12-21T14:39:37.813Z,6.90
2018-12-21T14:40:42.493Z,6.30